Goss, Missouri
Current Conditions -  °F | °C
As of 1:15 PM on Saturday 20 Dec 2014 (Local Time) from KHAE Reporting Station
Haze Haze  
Wind Chill:   Ceiling: 2300
Heat Index:   Visibility: 5mi
Dew Point:   Wind: 5mph
Humidity: 81%   Direction: 150°SSE
Pressure: 30.2"   Gusts: NA
Location:  39.5207°N, 92.0162°W
Report Text: KHAE 201915Z AUTO 15004KT 5SM HZ SCT007 OVC023 03/00 A3020 RMK AO2
Loading
Personal Weather Stations






























Interactive Weather Map New forecast layout! Learn more

10-Day Weather Forecast

Advertisements
Track Severe Weather on mobile